Time;durP1;ratioP1;P1;durP2;ratioP2;P2;SDS_P1;SDS_P2;PMS_P1;PMS_P2;Temp;Humidity;BMP_temperature;BMP_pressure;BME280_temperature;BME280_humidity;BME280_pressure;Samples;Min_cycle;Max_cycle;Signal;HPM_P1;HPM_P2
2023/07/18 00:02:20;;;;;;;9.55;3.40;;;;;;;18.48;72.93;102001.75;5113110;28;20039;-63
2023/07/18 00:04:48;;;;;;;9.00;3.10;;;;;;;18.46;72.71;101996.50;5114836;28;20056;-63
2023/07/18 00:07:16;;;;;;;12.43;3.83;;;;;;;18.39;73.26;101997.97;5114958;28;20040;-62
2023/07/18 00:09:45;;;;;;;8.88;2.88;;;;;;;18.34;73.50;101995.28;5096461;28;20108;-63
2023/07/18 00:12:12;;;;;;;10.73;3.15;;;;;;;18.25;74.47;101998.63;5113463;28;20494;-63
2023/07/18 00:14:41;;;;;;;7.45;3.05;;;;;;;18.26;74.54;102005.00;5113902;28;20045;-64
2023/07/18 00:17:08;;;;;;;9.75;3.35;;;;;;;18.22;74.74;101996.47;5096086;28;20492;-62
2023/07/18 00:19:37;;;;;;;10.88;3.42;;;;;;;18.15;75.66;102007.03;5113459;28;20047;-63
2023/07/18 00:22:07;;;;;;;9.02;3.40;;;;;;;18.12;75.94;102002.09;5100640;28;20043;-61
2023/07/18 00:24:35;;;;;;;9.27;3.40;;;;;;;18.11;76.23;102011.47;5097400;28;20048;-62
2023/07/18 00:27:04;;;;;;;10.63;3.00;;;;;;;18.12;76.36;101993.81;5094841;28;20056;-64
2023/07/18 00:29:31;;;;;;;9.02;3.45;;;;;;;18.14;76.74;101999.88;5094326;28;20476;-63
2023/07/18 00:31:59;;;;;;;10.73;3.45;;;;;;;18.14;76.95;101999.88;5103712;28;20039;-63
2023/07/18 00:34:27;;;;;;;7.68;3.67;;;;;;;18.15;77.46;102000.69;5112523;28;20047;-62
2023/07/18 00:36:55;;;;;;;10.15;3.65;;;;;;;18.16;77.61;102005.09;5101333;28;20054;-62
2023/07/18 00:39:23;;;;;;;10.77;3.53;;;;;;;18.14;78.13;101994.34;5094363;28;20044;-63
2023/07/18 00:41:52;;;;;;;8.02;3.63;;;;;;;18.14;78.20;102001.81;5062532;28;20108;-63
2023/07/18 00:44:21;;;;;;;7.80;3.60;;;;;;;18.14;78.61;102004.56;5080804;28;20050;-63
2023/07/18 00:46:51;;;;;;;8.95;3.50;;;;;;;18.13;78.69;101998.22;5114261;28;20551;-62
2023/07/18 00:49:21;;;;;;;9.07;3.60;;;;;;;18.10;79.09;102009.84;5079693;28;20054;-62
2023/07/18 00:51:49;;;;;;;8.90;3.33;;;;;;;18.06;79.51;102003.25;5096651;28;20054;-63
2023/07/18 00:54:17;;;;;;;10.80;4.22;;;;;;;18.06;79.89;102008.75;5079041;28;20054;-63
2023/07/18 00:56:45;;;;;;;9.20;4.13;;;;;;;18.02;80.41;102011.28;5076033;28;20044;-63
2023/07/18 00:59:16;;;;;;;10.07;3.58;;;;;;;18.00;80.87;102004.41;5098933;28;20127;-62
2023/07/18 01:01:44;;;;;;;9.63;3.70;;;;;;;17.99;81.17;102008.28;5079340;28;20487;-62
2023/07/18 01:04:13;;;;;;;10.90;4.32;;;;;;;17.90;81.65;101999.81;5062805;28;20044;-61
2023/07/18 01:06:42;;;;;;;9.60;4.35;;;;;;;17.82;82.37;102001.25;5095093;28;20088;-62
2023/07/18 01:09:09;;;;;;;8.48;3.92;;;;;;;17.81;82.98;102002.34;5062800;28;20065;-64
2023/07/18 01:11:37;;;;;;;8.88;3.55;;;;;;;17.84;82.56;101998.19;5079373;28;20047;-63
2023/07/18 01:14:05;;;;;;;7.88;3.15;;;;;;;17.84;82.80;101993.50;5113277;28;20046;-63
2023/07/18 01:16:33;;;;;;;13.60;3.60;;;;;;;17.84;82.98;101990.75;5113512;28;20056;-62
2023/07/18 01:19:01;;;;;;;6.60;3.20;;;;;;;17.87;82.77;101994.84;5109737;28;20484;-62
2023/07/18 01:21:29;;;;;;;8.77;2.92;;;;;;;17.90;82.59;101985.22;5101537;28;20112;-62
2023/07/18 01:23:56;;;;;;;7.13;3.10;;;;;;;17.92;82.50;101986.56;5114084;28;20048;-64
2023/07/18 01:26:24;;;;;;;9.15;3.60;;;;;;;17.94;82.24;101989.00;5112468;28;20056;-63
2023/07/18 01:28:53;;;;;;;8.63;3.20;;;;;;;17.92;82.34;101985.72;5113397;28;20043;-61
2023/07/18 01:31:20;;;;;;;7.70;3.25;;;;;;;17.90;82.52;101988.78;5125425;28;20122;-62
2023/07/18 01:33:48;;;;;;;11.27;3.53;;;;;;;17.84;82.59;101985.22;5131571;28;20075;-64
2023/07/18 01:36:16;;;;;;;10.30;3.35;;;;;;;17.76;82.99;101983.06;5122105;28;20126;-63
2023/07/18 01:38:44;;;;;;;9.50;3.55;;;;;;;17.71;83.64;101980.34;5094862;28;20052;-62
2023/07/18 01:41:12;;;;;;;6.32;3.55;;;;;;;17.64;84.08;101983.44;5102213;28;20109;-62
2023/07/18 01:43:40;;;;;;;8.15;3.58;;;;;;;17.58;84.33;101981.84;5107851;28;20075;-62
2023/07/18 01:46:08;;;;;;;7.72;3.45;;;;;;;17.54;84.82;101979.94;5124042;28;20063;-65
2023/07/18 01:48:36;;;;;;;9.05;3.90;;;;;;;17.46;85.40;101962.91;5115317;28;20056;-63
2023/07/18 01:51:07;;;;;;;10.90;3.67;;;;;;;17.43;85.58;101963.47;5114437;28;20077;-62
2023/07/18 01:53:35;;;;;;;15.20;4.00;;;;;;;17.33;86.14;101963.53;5113889;28;20054;-64
2023/07/18 01:56:03;;;;;;;18.77;4.25;;;;;;;17.28;86.60;101960.81;5111313;28;20048;-62
2023/07/18 01:58:31;;;;;;;9.73;3.80;;;;;;;17.20;87.38;101958.69;5095019;28;20048;-62
2023/07/18 02:01:02;;;;;;;8.13;3.55;;;;;;;17.18;87.61;101955.38;5111852;28;20054;-62
2023/07/18 02:03:30;;;;;;;7.53;3.25;;;;;;;17.21;87.65;101960.31;5111898;28;20039;-63
2023/07/18 02:05:59;;;;;;;9.55;4.20;;;;;;;17.18;88.30;101956.22;5110829;28;20492;-63
2023/07/18 02:08:27;;;;;;;10.70;4.35;;;;;;;17.20;88.38;101953.19;5113385;28;20040;-62
2023/07/18 02:10:55;;;;;;;9.85;4.28;;;;;;;17.21;88.88;101949.31;5103363;28;20060;-64
2023/07/18 02:13:23;;;;;;;9.63;4.30;;;;;;;17.22;88.92;101953.69;5096851;28;20056;-64
2023/07/18 02:15:50;;;;;;;8.43;3.92;;;;;;;17.25;88.82;101939.38;5098473;28;20051;-64
2023/07/18 02:18:18;;;;;;;9.60;4.15;;;;;;;17.24;89.03;101941.31;5081634;28;20048;-62
2023/07/18 02:20:46;;;;;;;9.70;4.43;;;;;;;17.26;89.03;101946.50;5116426;28;20503;-63
2023/07/18 02:23:14;;;;;;;8.95;3.95;;;;;;;17.26;89.01;101941.00;5099241;28;20040;-62
2023/07/18 02:25:42;;;;;;;7.40;3.90;;;;;;;17.28;89.07;101943.47;5072122;28;20064;-64
2023/07/18 02:28:12;;;;;;;9.25;3.80;;;;;;;17.32;88.84;101945.38;5092272;28;20040;-63
2023/07/18 02:30:42;;;;;;;6.95;3.85;;;;;;;17.34;88.61;101947.84;5077666;28;20047;-63
2023/07/18 02:33:10;;;;;;;8.48;4.07;;;;;;;17.32;88.67;101950.91;5096090;28;20047;-63
2023/07/18 02:35:39;;;;;;;11.23;3.60;;;;;;;17.33;88.76;101952.53;5096472;28;20040;-63
2023/07/18 02:38:07;;;;;;;9.40;3.80;;;;;;;17.33;88.64;101957.22;5076362;28;20044;-64
2023/07/18 02:40:34;;;;;;;8.45;3.78;;;;;;;17.34;88.72;101954.19;5095422;28;20488;-62
2023/07/18 02:43:04;;;;;;;10.73;4.30;;;;;;;17.35;88.51;101939.28;5096348;28;20093;-64
2023/07/18 02:45:32;;;;;;;10.50;4.53;;;;;;;17.36;88.33;101942.88;5078437;28;20480;-64
2023/07/18 02:48:00;;;;;;;8.52;4.15;;;;;;;17.34;88.27;101932.16;5089362;28;20055;-63
2023/07/18 02:50:28;;;;;;;9.02;4.07;;;;;;;17.31;88.33;101935.47;5065465;28;20048;-64
2023/07/18 02:52:58;;;;;;;8.40;3.63;;;;;;;17.27;88.63;101947.31;5075844;28;20049;-63
2023/07/18 02:55:27;;;;;;;8.90;4.20;;;;;;;17.25;88.89;101944.88;5075613;28;20056;-63
2023/07/18 02:57:55;;;;;;;8.15;3.80;;;;;;;17.24;88.81;101941.31;5077774;28;20052;-63
2023/07/18 03:00:25;;;;;;;7.13;3.63;;;;;;;17.23;88.74;101938.84;5066931;28;20043;-60
2023/07/18 03:02:54;;;;;;;7.55;3.78;;;;;;;17.24;88.84;101940.47;5077180;28;20048;-62
2023/07/18 03:05:22;;;;;;;8.15;3.88;;;;;;;17.24;88.67;101944.06;5061295;28;20044;-63
2023/07/18 03:07:54;;;;;;;9.02;3.92;;;;;;;17.23;88.57;101941.59;5077558;28;20044;-63
2023/07/18 03:10:23;;;;;;;8.23;3.47;;;;;;;17.22;88.60;101946.28;5093387;28;20050;-64
2023/07/18 03:12:51;;;;;;;7.50;3.90;;;;;;;17.20;88.69;101942.97;5044360;28;20092;-65
2023/07/18 03:15:21;;;;;;;8.35;3.33;;;;;;;17.20;88.49;101942.97;5044592;28;20508;-62
2023/07/18 03:17:49;;;;;;;7.07;3.50;;;;;;;17.18;88.57;101942.44;5077332;28;20051;-64
2023/07/18 03:20:17;;;;;;;8.63;3.67;;;;;;;17.17;88.37;101942.72;5075897;28;20044;-62
2023/07/18 03:22:46;;;;;;;8.90;3.78;;;;;;;17.13;88.48;101936.16;5076944;28;20044;-62
2023/07/18 03:25:15;;;;;;;8.68;4.07;;;;;;;17.10;88.65;101944.97;5097341;28;20050;-63
2023/07/18 03:27:45;;;;;;;8.40;3.65;;;;;;;17.12;88.12;101951.00;5115674;28;20048;-63
2023/07/18 03:30:13;;;;;;;11.55;3.50;;;;;;;17.12;88.28;101942.75;5113465;28;20403;-62
2023/07/18 03:32:41;;;;;;;6.75;3.60;;;;;;;17.10;88.37;101939.44;5115533;28;20043;-63
2023/07/18 03:35:10;;;;;;;11.63;4.38;;;;;;;17.10;88.16;101936.69;5114248;28;20057;-63
2023/07/18 03:37:38;;;;;;;6.65;3.42;;;;;;;17.11;88.21;101943.88;5097555;28;20043;-63
2023/07/18 03:40:07;;;;;;;8.73;3.55;;;;;;;17.10;87.92;101947.72;5094808;28;20048;-64
2023/07/18 03:42:35;;;;;;;7.50;3.45;;;;;;;17.08;87.47;101945.25;5096838;28;20043;-63
2023/07/18 03:45:04;;;;;;;7.55;3.70;;;;;;;17.03;87.60;101943.34;5115556;28;20127;-62
2023/07/18 03:47:32;;;;;;;9.68;3.95;;;;;;;17.02;87.73;101940.88;5106127;28;20044;-63
2023/07/18 03:50:00;;;;;;;9.13;3.50;;;;;;;17.00;88.07;101943.94;5074860;28;20047;-63
2023/07/18 03:52:28;;;;;;;5.93;3.15;;;;;;;17.01;87.64;101945.56;5095363;28;20046;-63
2023/07/18 03:54:56;;;;;;;8.90;4.10;;;;;;;17.02;87.36;101936.19;5097476;28;20051;-63
2023/07/18 03:57:27;;;;;;;8.15;3.38;;;;;;;16.99;87.05;101945.03;5114978;28;20048;-63
2023/07/18 03:59:54;;;;;;;8.05;3.55;;;;;;;16.97;87.43;101941.72;5114476;28;20449;-62
2023/07/18 04:02:22;;;;;;;7.03;3.25;;;;;;;16.99;87.19;101944.22;5111581;28;20403;-64
2023/07/18 04:04:50;;;;;;;8.27;3.60;;;;;;;16.94;87.18;101936.78;5095148;28;20402;-64
2023/07/18 04:07:19;;;;;;;7.97;3.47;;;;;;;16.93;87.03;101932.41;5113095;28;20388;-61
2023/07/18 04:09:47;;;;;;;7.88;3.50;;;;;;;16.93;87.22;101929.66;5079072;28;20052;-63
2023/07/18 04:12:16;;;;;;;9.18;4.00;;;;;;;16.94;86.66;101925.78;5112924;28;20112;-63
2023/07/18 04:14:44;;;;;;;8.00;3.63;;;;;;;16.93;86.84;101921.41;5115835;28;20035;-63
2023/07/18 04:17:12;;;;;;;6.65;3.45;;;;;;;16.93;86.89;101921.41;5081519;28;20052;-62
2023/07/18 04:19:40;;;;;;;16.02;4.05;;;;;;;16.94;86.55;101923.03;5106972;28;20047;-63
2023/07/18 04:22:08;;;;;;;7.20;3.60;;;;;;;16.92;86.78;101922.50;5063187;28;20053;-62
2023/07/18 04:24:35;;;;;;;6.85;3.80;;;;;;;16.93;86.19;101915.88;5096112;28;20046;-62
2023/07/18 04:27:04;;;;;;;6.90;3.30;;;;;;;16.92;86.24;101913.41;5115622;28;20425;-61
2023/07/18 04:29:32;;;;;;;8.98;3.67;;;;;;;16.91;86.37;101911.75;5115922;28;20050;-63
2023/07/18 04:31:59;;;;;;;6.13;3.65;;;;;;;16.89;86.18;101909.31;5114316;28;20051;-62
2023/07/18 04:34:27;;;;;;;9.07;4.07;;;;;;;16.88;85.78;101906.81;5113525;28;20039;-62
2023/07/18 04:36:55;;;;;;;7.35;3.88;;;;;;;16.90;85.86;101916.44;5114807;28;20410;-62
2023/07/18 04:39:23;;;;;;;6.88;3.60;;;;;;;16.90;85.68;101912.88;5117057;28;20048;-62
2023/07/18 04:41:51;;;;;;;6.82;3.20;;;;;;;16.90;85.85;101910.94;5118600;28;20039;-64
2023/07/18 04:44:23;;;;;;;5.03;3.08;;;;;;;16.90;85.64;101910.94;5114529;28;20035;-65
2023/07/18 04:46:54;;;;;;;7.13;3.53;;;;;;;16.91;85.23;101906.25;5083432;28;20055;-64
2023/07/18 04:49:24;;;;;;;7.72;3.60;;;;;;;16.92;84.89;101908.72;5108533;28;20050;-63
2023/07/18 04:51:52;;;;;;;7.93;3.50;;;;;;;16.90;84.82;101899.09;5114455;28;20058;-63
2023/07/18 04:54:20;;;;;;;8.88;3.72;;;;;;;16.93;84.90;101904.88;5094459;28;20047;-63
2023/07/18 04:56:48;;;;;;;8.05;3.63;;;;;;;16.98;84.73;101907.59;5109956;28;20044;-62
2023/07/18 04:59:16;;;;;;;6.90;3.50;;;;;;;16.95;84.10;101907.31;5113633;28;20040;-62
2023/07/18 05:01:44;;;;;;;9.25;3.75;;;;;;;16.96;84.23;101912.56;5077287;28;20040;-64
2023/07/18 05:04:12;;;;;;;6.00;3.40;;;;;;;16.98;84.42;101907.59;5097794;28;20453;-64
2023/07/18 05:06:40;;;;;;;5.75;3.20;;;;;;;16.98;83.65;101904.84;5094828;28;20057;-62
2023/07/18 05:09:08;;;;;;;6.82;3.55;;;;;;;16.99;84.03;101900.97;5079210;28;20077;-63
2023/07/18 05:11:36;;;;;;;8.77;3.67;;;;;;;17.03;83.82;101910.31;5099791;28;20117;-62
2023/07/18 05:14:04;;;;;;;7.32;3.53;;;;;;;17.04;83.57;101914.69;5119876;28;20115;-64
2023/07/18 05:16:31;;;;;;;6.68;3.15;;;;;;;17.01;83.38;101907.03;5094931;28;20051;-63
2023/07/18 05:18:59;;;;;;;7.78;3.83;;;;;;;16.97;83.21;101903.19;5096451;28;20062;-62
2023/07/18 05:21:28;;;;;;;8.27;3.38;;;;;;;17.01;83.75;101908.97;5114968;28;20058;-63
2023/07/18 05:23:56;;;;;;;6.93;3.42;;;;;;;17.02;83.12;101907.84;5096275;28;20051;-63
2023/07/18 05:26:24;;;;;;;8.85;3.80;;;;;;;16.98;82.68;101907.59;5094948;28;20069;-62
2023/07/18 05:28:53;;;;;;;8.25;3.10;;;;;;;17.04;83.97;101911.94;4403519;28;10000206;-65
2023/07/18 05:31:21;;;;;;;7.18;3.47;;;;;;;17.10;83.44;101922.94;5108206;28;20055;-61
2023/07/18 05:33:51;;;;;;;10.38;3.70;;;;;;;17.15;82.73;101917.38;5092282;28;20104;-63
2023/07/18 05:36:18;;;;;;;7.18;3.33;;;;;;;17.09;82.50;101913.84;5109077;28;20043;-64
2023/07/18 05:38:46;;;;;;;8.50;3.45;;;;;;;17.03;82.38;101915.00;5112779;28;20051;-63
2023/07/18 05:41:15;;;;;;;8.40;3.67;;;;;;;17.07;83.33;101915.25;5109174;28;20047;-62
2023/07/18 05:43:43;;;;;;;7.88;3.40;;;;;;;17.09;83.00;101913.03;5092589;28;20040;-62
2023/07/18 05:46:11;;;;;;;7.32;3.30;;;;;;;17.07;82.91;101909.72;5112037;28;20055;-64
2023/07/18 05:48:39;;;;;;;6.63;3.70;;;;;;;17.09;82.99;101913.84;5113315;28;20047;-64
2023/07/18 05:51:08;;;;;;;5.05;3.08;;;;;;;17.09;82.75;101921.28;5105385;28;20044;-63
2023/07/18 05:53:36;;;;;;;7.80;3.28;;;;;;;17.16;82.53;101919.03;5067467;28;20050;-66
2023/07/18 05:56:05;;;;;;;16.27;3.67;;;;;;;17.22;82.29;101918.72;5070048;28;20055;-64
2023/07/18 05:58:32;;;;;;;8.10;3.55;;;;;;;17.27;81.99;101923.38;5111346;28;20044;-63
2023/07/18 06:01:00;;;;;;;5.85;3.40;;;;;;;17.21;81.74;101916.25;5121104;28;20132;-61
2023/07/18 06:03:28;;;;;;;5.68;3.40;;;;;;;17.19;81.93;101912.97;5120161;28;20111;-62
2023/07/18 06:05:56;;;;;;;6.53;3.53;;;;;;;17.18;82.02;101911.31;5125528;28;20103;-59
2023/07/18 06:08:24;;;;;;;6.78;3.05;;;;;;;17.22;81.96;101917.88;5118944;28;20032;-63
2023/07/18 06:10:58;;;;;;;6.10;2.95;;;;;;;17.21;82.09;101916.25;5127113;28;20118;-61
2023/07/18 06:13:26;;;;;;;8.32;3.55;;;;;;;17.21;81.93;101911.56;5124422;28;20115;-62
2023/07/18 06:15:54;;;;;;;6.63;3.30;;;;;;;17.24;81.63;101915.66;5123967;28;20111;-61
2023/07/18 06:18:22;;;;;;;4.88;3.10;;;;;;;17.23;81.81;101925.06;5123495;28;20132;-62
2023/07/18 06:20:50;;;;;;;7.50;3.70;;;;;;;17.31;81.71;101920.88;5117691;28;20072;-65
2023/07/18 06:23:18;;;;;;;8.50;3.47;;;;;;;17.30;81.73;101925.56;5079184;28;20040;-64
2023/07/18 06:25:47;;;;;;;9.45;3.30;;;;;;;17.33;81.23;101922.22;5116121;28;20063;-64
2023/07/18 06:28:14;;;;;;;7.95;4.10;;;;;;;17.31;80.73;101915.34;5111256;28;20066;-64
2023/07/18 06:30:42;;;;;;;6.95;3.47;;;;;;;17.34;81.06;101923.88;5110696;28;20100;-62
2023/07/18 06:33:10;;;;;;;6.82;3.17;;;;;;;17.36;81.50;101918.06;5087799;28;20470;-63
2023/07/18 06:35:38;;;;;;;6.68;3.15;;;;;;;17.42;81.53;101914.19;5091880;28;20092;-64
2023/07/18 06:38:06;;;;;;;10.93;3.92;;;;;;;17.40;81.28;101919.16;5113830;28;20055;-62
2023/07/18 06:40:34;;;;;;;8.68;3.33;;;;;;;17.55;80.86;101913.50;5115387;28;20047;-62
2023/07/18 06:43:01;;;;;;;5.90;2.85;;;;;;;17.57;80.76;101914.03;5102243;28;20051;-62
2023/07/18 06:45:31;;;;;;;6.63;3.05;;;;;;;17.57;80.45;101924.25;5104497;28;20034;-62
2023/07/18 06:47:59;;;;;;;7.90;3.08;;;;;;;17.66;80.33;101917.00;5097894;28;20039;-64
2023/07/18 06:50:27;;;;;;;9.43;3.80;;;;;;;17.59;79.46;101928.34;5116345;28;20039;-61
2023/07/18 06:52:55;;;;;;;10.02;3.35;;;;;;;17.64;79.29;101920.03;5114876;28;20399;-67
2023/07/18 06:55:23;;;;;;;5.72;2.42;;;;;;;17.63;79.58;101918.41;5114205;28;20461;-62
2023/07/18 06:57:51;;;;;;;10.07;3.17;;;;;;;17.64;78.21;101917.28;5091319;28;20050;-63
2023/07/18 07:00:20;;;;;;;5.20;2.17;;;;;;;17.78;79.16;101908.34;5097565;28;20044;-60
2023/07/18 07:02:48;;;;;;;6.28;2.80;;;;;;;17.83;77.91;101906.41;5109309;28;20104;-64
2023/07/18 07:05:16;;;;;;;7.05;2.97;;;;;;;17.77;77.09;101903.94;5105347;28;20496;-64
2023/07/18 07:07:44;;;;;;;13.30;3.85;;;;;;;17.72;77.06;101904.81;5114291;28;20483;-65
2023/07/18 07:10:12;;;;;;;10.27;3.58;;;;;;;17.64;77.51;101903.50;5115014;28;20046;-64
2023/07/18 07:12:40;;;;;;;10.15;3.60;;;;;;;17.57;77.73;101899.44;5114531;28;20043;-64
2023/07/18 07:15:09;;;;;;;5.88;2.92;;;;;;;17.50;77.68;101901.72;5115556;28;20047;-63
2023/07/18 07:17:37;;;;;;;11.30;3.90;;;;;;;17.46;77.87;101907.81;5114216;28;20040;-63
2023/07/18 07:20:06;;;;;;;24.33;6.28;;;;;;;17.52;77.36;101908.56;5115796;28;20485;-63
2023/07/18 07:22:34;;;;;;;22.30;6.15;;;;;;;17.55;77.30;101907.19;5115423;28;20040;-63
2023/07/18 07:25:03;;;;;;;29.60;8.85;;;;;;;17.59;77.48;101916.53;5097021;28;20056;-63
2023/07/18 07:27:30;;;;;;;29.63;8.80;;;;;;;17.74;77.25;101908.09;5113987;28;20042;-63
2023/07/18 07:29:58;;;;;;;11.80;3.78;;;;;;;17.76;74.24;101900.38;5108904;28;20051;-64
2023/07/18 07:32:26;;;;;;;18.23;6.05;;;;;;;17.77;74.69;101907.50;5108070;28;20043;-63
2023/07/18 07:34:54;;;;;;;9.23;3.40;;;;;;;17.82;74.32;101904.78;5106414;28;20051;-64
2023/07/18 07:37:22;;;;;;;17.17;5.03;;;;;;;17.90;74.55;101905.25;5113213;28;20046;-64
2023/07/18 07:39:50;;;;;;;10.43;2.95;;;;;;;17.87;73.78;101901.97;5113408;28;20047;-64
2023/07/18 07:42:18;;;;;;;11.70;3.95;;;;;;;17.91;75.03;101893.09;5113719;28;20391;-65
2023/07/18 07:44:46;;;;;;;12.35;4.85;;;;;;;18.03;74.83;101899.03;5113282;28;20049;-64
2023/07/18 07:47:13;;;;;;;8.23;3.08;;;;;;;17.96;74.26;101904.06;5112837;28;20044;-63
2023/07/18 07:49:41;;;;;;;11.45;3.67;;;;;;;18.00;74.36;101905.13;5112389;28;20103;-64
2023/07/18 07:52:09;;;;;;;16.90;5.15;;;;;;;18.01;75.21;101901.25;5113773;28;20043;-63
2023/07/18 07:54:37;;;;;;;12.25;4.55;;;;;;;18.04;74.25;101903.44;5114736;28;20043;-63
2023/07/18 07:57:05;;;;;;;13.93;3.67;;;;;;;18.06;73.92;101899.28;5114129;28;20050;-60
2023/07/18 07:59:33;;;;;;;13.60;4.00;;;;;;;18.11;73.76;101901.13;5114875;28;20121;-62
2023/07/18 08:02:01;;;;;;;8.95;3.13;;;;;;;18.15;72.30;101902.19;5113395;28;20044;-63
2023/07/18 08:04:29;;;;;;;14.55;4.35;;;;;;;18.25;74.66;101895.75;5113699;28;20392;-61
2023/07/18 08:06:57;;;;;;;6.70;2.90;;;;;;;18.23;70.84;101898.81;5112850;28;20059;-63
2023/07/18 08:09:25;;;;;;;5.30;2.50;;;;;;;18.21;70.49;101891.97;5113498;28;20045;-62
2023/07/18 08:11:53;;;;;;;10.90;3.22;;;;;;;18.33;73.48;101886.00;5113621;28;20057;-64
2023/07/18 08:14:21;;;;;;;8.18;2.53;;;;;;;18.35;70.58;101884.63;5114661;28;20533;-62
2023/07/18 08:16:49;;;;;;;12.45;3.88;;;;;;;18.45;73.63;101884.47;5113121;28;20066;-63
2023/07/18 08:19:17;;;;;;;4.60;2.10;;;;;;;18.47;69.49;101885.00;5114585;28;20084;-62
2023/07/18 08:21:45;;;;;;;6.22;2.42;;;;;;;18.44;68.90;101885.56;5096735;28;20047;-65
2023/07/18 08:24:13;;;;;;;6.97;2.35;;;;;;;18.44;67.97;101887.53;5113415;28;20043;-62
2023/07/18 08:26:41;;;;;;;6.03;2.20;;;;;;;18.43;68.90;101881.19;5114429;28;20063;-64
2023/07/18 08:29:09;;;;;;;7.15;2.58;;;;;;;18.50;71.69;101878.06;5113346;28;20535;-62
2023/07/18 08:31:37;;;;;;;4.35;2.05;;;;;;;18.49;69.32;101879.16;5114318;28;20050;-63
2023/07/18 08:34:05;;;;;;;6.00;1.80;;;;;;;18.56;69.21;101868.59;5096508;28;20449;-61
2023/07/18 08:36:36;;;;;;;5.25;1.92;;;;;;;18.57;69.02;101877.69;5114805;28;20044;-63
2023/07/18 08:39:07;;;;;;;4.32;1.70;;;;;;;18.63;68.00;101866.28;5096489;28;20103;-61
2023/07/18 08:41:44;;;;;;;6.50;1.90;;;;;;;18.70;67.19;101863.97;5114765;28;20389;-62
2023/07/18 08:44:13;;;;;;;5.40;1.90;;;;;;;18.79;70.36;101866.94;5113387;28;20055;-62
2023/07/18 08:46:43;;;;;;;5.47;1.42;;;;;;;18.82;64.18;101863.56;5113256;28;20054;-62
2023/07/18 08:49:14;;;;;;;4.63;1.60;;;;;;;18.82;61.94;101860.00;5096669;28;20052;-62
2023/07/18 08:51:46;;;;;;;4.53;1.42;;;;;;;18.83;61.41;101861.63;5112829;28;20051;-61
2023/07/18 08:54:13;;;;;;;4.88;1.60;;;;;;;18.84;61.00;101853.06;5113060;28;20448;-62
2023/07/18 08:56:43;;;;;;;4.60;1.48;;;;;;;18.84;60.40;101858.56;5113179;28;20179;-61
2023/07/18 08:59:13;;;;;;;5.10;2.47;;;;;;;18.91;63.67;101859.03;5095995;28;20063;-62
2023/07/18 09:01:48;;;;;;;3.30;2.03;;;;;;;18.99;66.21;101846.47;5113515;28;20053;-63
2023/07/18 09:04:16;;;;;;;2.75;1.58;;;;;;;19.05;65.52;101847.19;5105755;28;20407;-62
2023/07/18 09:06:49;;;;;;;5.82;1.50;;;;;;;19.06;59.86;101841.38;5114303;28;20084;-63
2023/07/18 09:09:21;;;;;;;5.03;1.55;;;;;;;19.10;60.27;101839.69;5112583;28;20047;-62
2023/07/18 09:11:55;;;;;;;2.88;1.30;;;;;;;19.13;59.51;101833.53;5114304;28;20042;-63
2023/07/18 09:14:27;;;;;;;4.15;2.20;;;;;;;19.21;62.74;101833.97;5113860;28;20508;-63
2023/07/18 09:16:56;;;;;;;3.03;1.40;;;;;;;19.28;62.64;101823.34;5114357;28;20043;-64
2023/07/18 09:19:43;;;;;;;1.80;1.63;;;;;;;19.37;63.60;101829.84;5116282;28;20057;-63
2023/07/18 09:22:12;;;;;;;2.67;1.13;;;;;;;19.41;58.72;101828.13;5118399;28;20156;-62
2023/07/18 09:24:41;;;;;;;3.05;0.80;;;;;;;19.44;58.20;101826.69;5116918;28;20058;-59
2023/07/18 09:27:20;;;;;;;4.53;1.65;;;;;;;19.41;56.29;101822.59;5083438;28;20107;-64
2023/07/18 09:29:48;;;;;;;3.00;1.35;;;;;;;19.44;57.70;101827.50;5095430;28;20100;-65
2023/07/18 09:32:18;;;;;;;2.25;1.05;;;;;;;19.43;57.56;101831.38;5096217;28;20496;-64
2023/07/18 09:34:53;;;;;;;1.45;0.80;;;;;;;19.39;58.09;101818.50;5106000;28;20407;-64
2023/07/18 09:37:21;;;;;;;2.17;1.17;;;;;;;19.38;58.28;101817.66;5050820;28;20046;-66
2023/07/18 09:39:50;;;;;;;3.75;1.20;;;;;;;19.41;57.12;101817.06;5085300;28;20048;-64
2023/07/18 09:42:19;;;;;;;2.20;1.20;;;;;;;19.45;55.10;101817.25;5089892;28;20395;-66
2023/07/18 09:44:49;;;;;;;2.75;1.05;;;;;;;19.46;54.32;101814.19;5100294;28;20376;-65
2023/07/18 09:47:20;;;;;;;1.55;0.95;;;;;;;19.50;54.28;101814.41;5115227;28;20036;-65
2023/07/18 09:49:50;;;;;;;2.83;1.15;;;;;;;19.54;51.83;101810.72;5115230;28;20046;-64
2023/07/18 09:52:26;;;;;;;1.15;1.05;;;;;;;19.53;51.64;101819.31;5117176;28;20051;-65
2023/07/18 09:54:54;;;;;;;3.90;2.25;;;;;;;19.52;52.48;101820.44;5116510;28;20084;-64
2023/07/18 09:57:22;;;;;;;2.05;1.10;;;;;;;19.47;51.36;101815.81;5117207;28;20079;-64
2023/07/18 09:59:50;;;;;;;3.33;1.20;;;;;;;19.43;51.78;101820.31;5115428;28;20048;-64
2023/07/18 10:02:18;;;;;;;4.95;1.40;;;;;;;19.45;50.80;101820.84;5116956;28;20054;-63
2023/07/18 10:04:48;;;;;;;2.25;1.15;;;;;;;19.50;50.06;101815.22;5100075;28;20479;-64
2023/07/18 10:07:16;;;;;;;2.13;0.90;;;;;;;19.59;50.14;101815.34;5099803;28;20047;-65
2023/07/18 10:09:44;;;;;;;1.75;0.93;;;;;;;19.68;50.25;101815.50;5115983;28;20086;-64
2023/07/18 10:12:12;;;;;;;2.20;1.05;;;;;;;19.73;50.45;101807.09;5081048;28;20040;-65
2023/07/18 10:14:49;;;;;;;2.70;1.05;;;;;;;19.77;51.17;101808.94;5117872;27;20039;-65
2023/07/18 10:17:29;;;;;;;3.22;1.20;;;;;;;19.81;50.46;101794.50;5117816;28;20088;-65
2023/07/18 10:19:58;;;;;;;1.48;1.02;;;;;;;19.81;51.09;101791.72;5090763;28;20130;-64
2023/07/18 10:22:30;;;;;;;1.55;1.10;;;;;;;19.82;51.19;101793.38;5114857;28;20039;-65
2023/07/18 10:25:06;;;;;;;3.58;0.90;;;;;;;19.87;50.67;101788.56;5102412;28;20048;-65
2023/07/18 10:27:38;;;;;;;;;;;;;;;19.90;51.06;101782.41;5101118;28;20131;-64
2023/07/18 10:30:11;;;;;;;3.05;1.00;;;;;;;19.94;51.99;101777.91;5109729;28;19947;-60
2023/07/18 10:32:39;;;;;;;4.88;1.30;;;;;;;19.94;51.14;101769.63;4751027;28;9999847;-62
2023/07/18 10:35:11;;;;;;;1.50;1.17;;;;;;;19.94;52.39;101771.53;5102945;28;20088;-66
2023/07/18 10:37:43;;;;;;;2.25;1.20;;;;;;;19.89;51.65;101772.50;5083583;28;20051;-64
2023/07/18 10:40:37;;;;;;;3.47;1.67;;;;;;;19.86;50.12;101756.50;5109816;28;20105;-64
2023/07/18 10:43:09;;;;;;;4.45;1.55;;;;;;;19.84;49.87;101764.25;5117194;28;20067;-61
2023/07/18 10:45:38;;;;;;;4.78;1.67;;;;;;;19.87;50.81;101768.41;5055564;28;20118;-65
2023/07/18 10:48:24;;;;;;;3.42;1.15;;;;;;;19.91;51.95;101761.91;5087639;28;20517;-65
2023/07/18 10:50:52;;;;;;;1.50;1.40;;;;;;;19.99;50.06;101749.31;5113484;28;20054;-64
2023/07/18 10:53:23;;;;;;;2.55;1.33;;;;;;;20.06;50.44;101743.34;5114088;28;20052;-64
2023/07/18 10:55:52;;;;;;;2.05;1.25;;;;;;;20.10;51.04;101747.16;5094352;28;20111;-66
2023/07/18 10:58:21;;;;;;;3.15;1.42;;;;;;;20.16;52.58;101743.97;5094758;28;20048;-66
2023/07/18 11:00:49;;;;;;;1.63;1.08;;;;;;;20.22;50.83;101741.88;5094053;28;20494;-66
2023/07/18 11:03:34;;;;;;;3.50;1.35;;;;;;;20.26;51.13;101742.09;5113307;28;20059;-65
2023/07/18 11:06:07;;;;;;;4.28;1.25;;;;;;;20.28;50.96;101739.84;5096448;28;20051;-65
2023/07/18 11:08:35;;;;;;;4.07;1.05;;;;;;;20.32;49.38;101736.13;5095692;28;20049;-66
2023/07/18 11:11:05;;;;;;;6.90;1.27;;;;;;;20.36;49.20;101736.31;5097461;28;20391;-65
2023/07/18 11:13:34;;;;;;;2.80;1.25;;;;;;;20.40;48.59;101740.94;5096080;28;20108;-66
2023/07/18 11:16:05;;;;;;;1.90;1.50;;;;;;;20.44;47.52;101743.88;5114084;28;20051;-63
2023/07/18 11:18:38;;;;;;;3.53;1.75;;;;;;;20.48;48.51;101733.00;5088737;28;20047;-64
2023/07/18 11:21:07;;;;;;;4.57;1.92;;;;;;;20.50;48.13;101733.53;5088128;28;20055;-65
2023/07/18 11:23:36;;;;;;;4.53;1.80;;;;;;;20.53;48.57;101749.50;5061892;28;20044;-66
2023/07/18 11:26:18;;;;;;;2.80;1.38;;;;;;;20.56;49.11;101743.34;5084373;28;20066;-63
2023/07/18 11:28:49;;;;;;;2.55;1.25;;;;;;;20.61;47.42;101743.22;5101463;28;20044;-64
2023/07/18 11:31:21;;;;;;;2.90;1.02;;;;;;;20.63;45.45;101732.66;5093162;28;20051;-64
2023/07/18 11:34:07;;;;;;;2.95;1.27;;;;;;;20.67;46.91;101724.56;5111305;28;20036;-64